CheckWX is a tool to help pilots better visualize weather data.  It is not intended as a substitute for an official pre-flight weather briefing.

11:24:56 UTC

SCVM TAF
Viña del mar Airport
Viña Del Mar, Chile
TAF SCVM 051012Z 0512/0612 33004KT CAVOK TX19/0518Z TN12/0611Z TEMPO 0512/0516 00000KT 4000 BR SCT005 OVC008 BECMG 0515/0517 33012KT BECMG 0601/0603 15004KT TEMPO 0608/0612 00000KT 5000 BR BKN008

Apr-5@
12:00 UTC

Apr-5 @ 12:00 UTC

Apr-5@
15:00 UTC

Apr-5 @ 15:00 UTC

TAF SCVM 051012Z 0512/0612 33004KT CAVOK TX19/0518Z TN12/0611Z

Expired

Wind
  • 330° at 4 KTS
Cloud Levels
  • No significant clouds

Apr-5@
12:00 UTC

Apr-5 @ 12:00 UTC

Apr-5@
16:00 UTC

Apr-5 @ 16:00 UTC

TEMPO 0512/0516 00000KT 4000 BR SCT005 OVC008

Expired

Conditions
Mist
Cloud Levels
  • Scattered at 500' AGL
  • Overcast at 800' AGL

Apr-5@
15:00 UTC

Apr-5 @ 15:00 UTC

Apr-6@
01:00 UTC

Apr-6 @ 01:00 UTC

BECMG 0515/0517 33012KT

Expired

Wind
  • 330° at 12 KTS
Cloud Levels
  • No significant clouds

Apr-6@
01:00 UTC

Apr-6 @ 01:00 UTC

Apr-6@
12:00 UTC

Apr-6 @ 12:00 UTC

BECMG 0601/0603 15004KT

Becoming

Becoming Conditions expected by Mon, Apr 6, 2020 @ 03:00 UTC

Wind
  • 150° at 4 KTS
Cloud Levels
  • No significant clouds

Apr-6@
08:00 UTC

Apr-6 @ 08:00 UTC

Apr-6@
12:00 UTC

Apr-6 @ 12:00 UTC

TEMPO 0608/0612 00000KT 5000 BR BKN008

Temporary

Temporary Changes expected for less than half the time period

Conditions
Mist
Cloud Levels
  • Broken at 800' AGL